sensor_id;sensor_type;location;lat;lon;timestamp;temperature;humidity
26081;DHT22;13991;51.174;4.438;2023-03-01T00:01:36;3.60;99.90
26081;DHT22;13991;51.174;4.438;2023-03-01T00:04:02;3.60;99.90
26081;DHT22;13991;51.174;4.438;2023-03-01T00:06:28;3.50;99.90
26081;DHT22;13991;51.174;4.438;2023-03-01T00:08:54;3.60;99.90
26081;DHT22;13991;51.174;4.438;2023-03-01T00:11:23;3.50;99.90
26081;DHT22;13991;51.174;4.438;2023-03-01T00:13:52;3.50;99.90
26081;DHT22;13991;51.174;4.438;2023-03-01T00:16:23;3.40;99.90
26081;DHT22;13991;51.174;4.438;2023-03-01T00:18:50;3.70;99.90
26081;DHT22;13991;51.174;4.438;2023-03-01T00:21:16;3.60;99.90
26081;DHT22;13991;51.174;4.438;2023-03-01T00:23:42;3.40;99.90
26081;DHT22;13991;51.174;4.438;2023-03-01T00:26:10;3.30;99.90
26081;DHT22;13991;51.174;4.438;2023-03-01T00:28:37;3.40;99.90
26081;DHT22;13991;51.174;4.438;2023-03-01T00:31:09;3.30;99.90
26081;DHT22;13991;51.174;4.438;2023-03-01T00:33:35;3.40;99.90
26081;DHT22;13991;51.174;4.438;2023-03-01T00:36:02;3.40;99.90
26081;DHT22;13991;51.174;4.438;2023-03-01T00:38:29;3.50;99.90
26081;DHT22;13991;51.174;4.438;2023-03-01T00:40:54;3.50;99.90
26081;DHT22;13991;51.174;4.438;2023-03-01T00:43:20;3.50;99.90
26081;DHT22;13991;51.174;4.438;2023-03-01T00:45:46;3.40;99.90
26081;DHT22;13991;51.174;4.438;2023-03-01T00:48:11;3.40;99.90
26081;DHT22;13991;51.174;4.438;2023-03-01T00:50:37;3.30;99.90
26081;DHT22;13991;51.174;4.438;2023-03-01T00:53:03;3.30;99.90
26081;DHT22;13991;51.174;4.438;2023-03-01T00:55:30;3.40;99.90
26081;DHT22;13991;51.174;4.438;2023-03-01T00:57:56;3.50;99.90
26081;DHT22;13991;51.174;4.438;2023-03-01T01:00:22;3.40;99.90
26081;DHT22;13991;51.174;4.438;2023-03-01T01:02:47;3.40;99.90
26081;DHT22;13991;51.174;4.438;2023-03-01T01:05:13;3.30;99.90
26081;DHT22;13991;51.174;4.438;2023-03-01T01:07:39;3.20;99.90
26081;DHT22;13991;51.174;4.438;2023-03-01T01:10:05;3.20;99.90
26081;DHT22;13991;51.174;4.438;2023-03-01T01:12:32;3.10;99.90
26081;DHT22;13991;51.174;4.438;2023-03-01T01:14:58;3.10;99.90
26081;DHT22;13991;51.174;4.438;2023-03-01T01:17:24;3.20;99.90
26081;DHT22;13991;51.174;4.438;2023-03-01T01:19:49;3.20;99.90
26081;DHT22;13991;51.174;4.438;2023-03-01T01:22:15;3.30;99.90
26081;DHT22;13991;51.174;4.438;2023-03-01T01:24:41;3.30;99.90
26081;DHT22;13991;51.174;4.438;2023-03-01T01:27:06;3.30;99.90
26081;DHT22;13991;51.174;4.438;2023-03-01T01:29:33;3.20;99.90
26081;DHT22;13991;51.174;4.438;2023-03-01T01:31:59;3.10;99.90
26081;DHT22;13991;51.174;4.438;2023-03-01T01:34:24;3.00;99.90
26081;DHT22;13991;51.174;4.438;2023-03-01T01:36:52;3.00;99.90
26081;DHT22;13991;51.174;4.438;2023-03-01T01:39:21;2.90;99.90
26081;DHT22;13991;51.174;4.438;2023-03-01T01:41:47;2.90;99.90
26081;DHT22;13991;51.174;4.438;2023-03-01T01:51:47;2.90;99.90
26081;DHT22;13991;51.174;4.438;2023-03-01T01:54:23;2.80;99.90
26081;DHT22;13991;51.174;4.438;2023-03-01T01:57:02;2.90;99.90
26081;DHT22;13991;51.174;4.438;2023-03-01T01:59:29;2.80;99.90
26081;DHT22;13991;51.174;4.438;2023-03-01T02:01:59;2.80;99.90
26081;DHT22;13991;51.174;4.438;2023-03-01T02:04:25;2.90;99.90
26081;DHT22;13991;51.174;4.438;2023-03-01T02:07:18;3.00;99.90
26081;DHT22;13991;51.174;4.438;2023-03-01T02:09:47;2.90;99.90
26081;DHT22;13991;51.174;4.438;2023-03-01T02:12:15;2.90;99.90
26081;DHT22;13991;51.174;4.438;2023-03-01T02:14:42;2.80;99.90
26081;DHT22;13991;51.174;4.438;2023-03-01T02:17:08;2.90;99.90
26081;DHT22;13991;51.174;4.438;2023-03-01T02:22:31;2.90;99.90
26081;DHT22;13991;51.174;4.438;2023-03-01T02:28:36;3.10;99.90
26081;DHT22;13991;51.174;4.438;2023-03-01T02:31:05;2.90;99.90
26081;DHT22;13991;51.174;4.438;2023-03-01T02:33:51;2.80;99.90
26081;DHT22;13991;51.174;4.438;2023-03-01T02:36:29;2.70;99.90
26081;DHT22;13991;51.174;4.438;2023-03-01T02:38:58;2.60;99.90
26081;DHT22;13991;51.174;4.438;2023-03-01T02:41:25;2.60;99.90
26081;DHT22;13991;51.174;4.438;2023-03-01T02:43:52;2.60;99.90
26081;DHT22;13991;51.174;4.438;2023-03-01T02:46:20;2.70;99.90
26081;DHT22;13991;51.174;4.438;2023-03-01T02:48:50;2.70;99.90
26081;DHT22;13991;51.174;4.438;2023-03-01T02:51:34;2.80;99.90
26081;DHT22;13991;51.174;4.438;2023-03-01T02:54:42;2.70;99.90
26081;DHT22;13991;51.174;4.438;2023-03-01T02:57:10;2.60;99.90
26081;DHT22;13991;51.174;4.438;2023-03-01T02:59:37;2.70;99.90
26081;DHT22;13991;51.174;4.438;2023-03-01T03:02:25;2.60;99.90
26081;DHT22;13991;51.174;4.438;2023-03-01T03:05:17;2.70;99.90
26081;DHT22;13991;51.174;4.438;2023-03-01T03:07:45;2.80;99.90
26081;DHT22;13991;51.174;4.438;2023-03-01T03:10:26;2.80;99.90
26081;DHT22;13991;51.174;4.438;2023-03-01T03:12:55;2.80;99.90
26081;DHT22;13991;51.174;4.438;2023-03-01T03:15:21;2.70;99.90
26081;DHT22;13991;51.174;4.438;2023-03-01T03:17:48;2.60;99.90
26081;DHT22;13991;51.174;4.438;2023-03-01T03:20:16;2.60;99.90
26081;DHT22;13991;51.174;4.438;2023-03-01T03:22:45;2.60;99.90
26081;DHT22;13991;51.174;4.438;2023-03-01T03:25:12;2.50;99.90
26081;DHT22;13991;51.174;4.438;2023-03-01T03:27:42;2.60;99.90
26081;DHT22;13991;51.174;4.438;2023-03-01T03:30:11;2.50;99.90
26081;DHT22;13991;51.174;4.438;2023-03-01T03:32:43;2.60;99.90
26081;DHT22;13991;51.174;4.438;2023-03-01T03:35:19;2.50;99.90
26081;DHT22;13991;51.174;4.438;2023-03-01T03:37:45;2.50;99.90
26081;DHT22;13991;51.174;4.438;2023-03-01T03:42:57;2.40;99.90
26081;DHT22;13991;51.174;4.438;2023-03-01T03:45:23;2.40;99.90
26081;DHT22;13991;51.174;4.438;2023-03-01T03:47:49;2.40;99.90
26081;DHT22;13991;51.174;4.438;2023-03-01T03:50:16;2.40;99.90
26081;DHT22;13991;51.174;4.438;2023-03-01T03:52:43;2.40;99.90
26081;DHT22;13991;51.174;4.438;2023-03-01T03:55:10;2.40;99.90
26081;DHT22;13991;51.174;4.438;2023-03-01T03:57:38;2.30;99.90
26081;DHT22;13991;51.174;4.438;2023-03-01T04:00:05;2.10;99.90
26081;DHT22;13991;51.174;4.438;2023-03-01T04:02:39;2.00;99.90
26081;DHT22;13991;51.174;4.438;2023-03-01T04:05:05;2.10;99.90
26081;DHT22;13991;51.174;4.438;2023-03-01T04:07:30;2.30;99.90
26081;DHT22;13991;51.174;4.438;2023-03-01T04:09:56;2.30;99.90
26081;DHT22;13991;51.174;4.438;2023-03-01T04:12:22;2.20;99.90
26081;DHT22;13991;51.174;4.438;2023-03-01T04:14:48;2.00;99.90
26081;DHT22;13991;51.174;4.438;2023-03-01T04:17:14;2.10;99.90
26081;DHT22;13991;51.174;4.438;2023-03-01T04:19:39;2.10;99.90
26081;DHT22;13991;51.174;4.438;2023-03-01T04:22:05;2.20;99.90
26081;DHT22;13991;51.174;4.438;2023-03-01T04:24:37;2.00;99.90
26081;DHT22;13991;51.174;4.438;2023-03-01T04:27:03;2.00;99.90
26081;DHT22;13991;51.174;4.438;2023-03-01T04:29:29;2.00;99.90
26081;DHT22;13991;51.174;4.438;2023-03-01T04:31:55;2.00;99.90
26081;DHT22;13991;51.174;4.438;2023-03-01T04:34:21;2.00;99.90
26081;DHT22;13991;51.174;4.438;2023-03-01T04:36:46;2.00;99.90
26081;DHT22;13991;51.174;4.438;2023-03-01T04:39:12;1.90;99.90
26081;DHT22;13991;51.174;4.438;2023-03-01T04:41:39;1.90;99.90
26081;DHT22;13991;51.174;4.438;2023-03-01T04:44:05;1.70;99.90
26081;DHT22;13991;51.174;4.438;2023-03-01T04:46:31;1.80;99.90
26081;DHT22;13991;51.174;4.438;2023-03-01T04:48:57;1.90;99.90
26081;DHT22;13991;51.174;4.438;2023-03-01T04:51:22;1.90;99.90
26081;DHT22;13991;51.174;4.438;2023-03-01T04:53:48;2.00;99.90
26081;DHT22;13991;51.174;4.438;2023-03-01T04:56:14;1.80;99.90
26081;DHT22;13991;51.174;4.438;2023-03-01T04:58:40;1.80;99.90
26081;DHT22;13991;51.174;4.438;2023-03-01T05:01:14;1.70;99.90
26081;DHT22;13991;51.174;4.438;2023-03-01T05:03:48;1.90;99.90
26081;DHT22;13991;51.174;4.438;2023-03-01T05:06:15;1.80;99.90
26081;DHT22;13991;51.174;4.438;2023-03-01T05:08:41;1.80;99.90
26081;DHT22;13991;51.174;4.438;2023-03-01T05:11:08;1.70;99.90
26081;DHT22;13991;51.174;4.438;2023-03-01T05:13:38;1.80;99.90
26081;DHT22;13991;51.174;4.438;2023-03-01T05:16:05;1.80;99.90
26081;DHT22;13991;51.174;4.438;2023-03-01T05:18:33;1.80;99.90
26081;DHT22;13991;51.174;4.438;2023-03-01T05:23:30;1.90;99.90
26081;DHT22;13991;51.174;4.438;2023-03-01T05:26:01;2.00;99.90
26081;DHT22;13991;51.174;4.438;2023-03-01T05:28:29;2.00;99.90
26081;DHT22;13991;51.174;4.438;2023-03-01T05:30:56;1.70;99.90
26081;DHT22;13991;51.174;4.438;2023-03-01T05:33:22;1.70;99.90
26081;DHT22;13991;51.174;4.438;2023-03-01T05:35:49;1.70;99.90
26081;DHT22;13991;51.174;4.438;2023-03-01T05:38:16;1.90;99.90
26081;DHT22;13991;51.174;4.438;2023-03-01T05:40:43;1.80;99.90
26081;DHT22;13991;51.174;4.438;2023-03-01T05:43:10;1.80;99.90
26081;DHT22;13991;51.174;4.438;2023-03-01T05:45:37;1.70;99.90
26081;DHT22;13991;51.174;4.438;2023-03-01T05:48:04;1.60;99.90
26081;DHT22;13991;51.174;4.438;2023-03-01T05:50:34;1.60;99.90
26081;DHT22;13991;51.174;4.438;2023-03-01T05:53:05;1.90;99.90
26081;DHT22;13991;51.174;4.438;2023-03-01T05:55:32;1.90;99.90
26081;DHT22;13991;51.174;4.438;2023-03-01T05:57:59;1.80;99.90
26081;DHT22;13991;51.174;4.438;2023-03-01T06:00:25;1.80;99.90
26081;DHT22;13991;51.174;4.438;2023-03-01T06:02:52;1.60;99.90
26081;DHT22;13991;51.174;4.438;2023-03-01T06:05:18;1.60;99.90
26081;DHT22;13991;51.174;4.438;2023-03-01T06:07:44;1.60;99.90
26081;DHT22;13991;51.174;4.438;2023-03-01T06:10:11;1.60;99.90
26081;DHT22;13991;51.174;4.438;2023-03-01T06:12:38;1.50;99.90
26081;DHT22;13991;51.174;4.438;2023-03-01T06:15:05;1.70;99.90
26081;DHT22;13991;51.174;4.438;2023-03-01T06:17:33;1.60;99.90
26081;DHT22;13991;51.174;4.438;2023-03-01T06:20:03;1.60;99.90
26081;DHT22;13991;51.174;4.438;2023-03-01T06:22:29;1.60;99.90
26081;DHT22;13991;51.174;4.438;2023-03-01T06:24:55;1.50;99.90
26081;DHT22;13991;51.174;4.438;2023-03-01T06:27:20;1.50;99.90
26081;DHT22;13991;51.174;4.438;2023-03-01T06:29:46;1.40;99.90
26081;DHT22;13991;51.174;4.438;2023-03-01T06:32:12;1.40;99.90
26081;DHT22;13991;51.174;4.438;2023-03-01T06:34:37;1.50;99.90
26081;DHT22;13991;51.174;4.438;2023-03-01T06:37:03;1.60;99.90
26081;DHT22;13991;51.174;4.438;2023-03-01T06:39:31;1.50;99.90
26081;DHT22;13991;51.174;4.438;2023-03-01T06:41:57;1.50;99.90
26081;DHT22;13991;51.174;4.438;2023-03-01T06:44:23;1.40;99.90
26081;DHT22;13991;51.174;4.438;2023-03-01T06:46:49;1.40;99.90
26081;DHT22;13991;51.174;4.438;2023-03-01T06:49:15;1.50;99.90
26081;DHT22;13991;51.174;4.438;2023-03-01T06:51:43;1.50;99.90
26081;DHT22;13991;51.174;4.438;2023-03-01T06:54:09;1.40;99.90
26081;DHT22;13991;51.174;4.438;2023-03-01T06:56:35;1.50;99.90
26081;DHT22;13991;51.174;4.438;2023-03-01T06:59:01;1.60;99.90
26081;DHT22;13991;51.174;4.438;2023-03-01T07:01:28;1.70;99.90
26081;DHT22;13991;51.174;4.438;2023-03-01T07:03:54;1.60;99.90
26081;DHT22;13991;51.174;4.438;2023-03-01T07:06:20;1.50;99.90
26081;DHT22;13991;51.174;4.438;2023-03-01T07:08:46;1.50;99.90
26081;DHT22;13991;51.174;4.438;2023-03-01T07:11:12;1.60;99.90
26081;DHT22;13991;51.174;4.438;2023-03-01T07:13:38;1.60;99.90
26081;DHT22;13991;51.174;4.438;2023-03-01T07:16:04;1.50;99.90
26081;DHT22;13991;51.174;4.438;2023-03-01T07:18:29;1.50;99.90
26081;DHT22;13991;51.174;4.438;2023-03-01T07:20:55;1.70;99.90
26081;DHT22;13991;51.174;4.438;2023-03-01T07:23:21;1.80;99.90
26081;DHT22;13991;51.174;4.438;2023-03-01T07:25:53;1.90;99.90
26081;DHT22;13991;51.174;4.438;2023-03-01T07:28:20;1.90;99.90
26081;DHT22;13991;51.174;4.438;2023-03-01T07:30:45;1.90;99.90
26081;DHT22;13991;51.174;4.438;2023-03-01T07:33:11;1.90;99.90
26081;DHT22;13991;51.174;4.438;2023-03-01T07:35:37;1.90;99.90
26081;DHT22;13991;51.174;4.438;2023-03-01T07:38:02;2.00;99.90
26081;DHT22;13991;51.174;4.438;2023-03-01T07:40:28;2.00;99.90
26081;DHT22;13991;51.174;4.438;2023-03-01T07:42:57;2.10;99.90
26081;DHT22;13991;51.174;4.438;2023-03-01T07:45:27;2.20;99.90
26081;DHT22;13991;51.174;4.438;2023-03-01T07:47:53;2.30;99.90
26081;DHT22;13991;51.174;4.438;2023-03-01T07:50:19;2.40;99.90
26081;DHT22;13991;51.174;4.438;2023-03-01T07:52:49;2.70;99.90
26081;DHT22;13991;51.174;4.438;2023-03-01T07:55:16;2.80;99.90
26081;DHT22;13991;51.174;4.438;2023-03-01T07:57:42;2.70;99.90
26081;DHT22;13991;51.174;4.438;2023-03-01T08:00:10;2.80;99.90
26081;DHT22;13991;51.174;4.438;2023-03-01T08:02:36;2.80;99.90
26081;DHT22;13991;51.174;4.438;2023-03-01T08:05:02;2.70;99.90
26081;DHT22;13991;51.174;4.438;2023-03-01T08:07:28;2.70;99.90
26081;DHT22;13991;51.174;4.438;2023-03-01T08:09:54;2.90;99.90
26081;DHT22;13991;51.174;4.438;2023-03-01T08:12:19;2.90;99.90
26081;DHT22;13991;51.174;4.438;2023-03-01T08:14:45;2.90;99.90
26081;DHT22;13991;51.174;4.438;2023-03-01T08:17:13;3.10;99.90
26081;DHT22;13991;51.174;4.438;2023-03-01T08:19:39;3.20;99.90
26081;DHT22;13991;51.174;4.438;2023-03-01T08:22:05;3.20;99.90
26081;DHT22;13991;51.174;4.438;2023-03-01T08:24:31;3.30;99.90
26081;DHT22;13991;51.174;4.438;2023-03-01T08:26:56;3.30;99.90
26081;DHT22;13991;51.174;4.438;2023-03-01T08:29:22;3.40;99.90
26081;DHT22;13991;51.174;4.438;2023-03-01T08:31:50;3.50;99.90
26081;DHT22;13991;51.174;4.438;2023-03-01T08:34:17;3.50;99.90
26081;DHT22;13991;51.174;4.438;2023-03-01T08:36:45;3.50;99.90
26081;DHT22;13991;51.174;4.438;2023-03-01T08:39:14;3.60;99.90
26081;DHT22;13991;51.174;4.438;2023-03-01T08:41:40;3.70;99.90
26081;DHT22;13991;51.174;4.438;2023-03-01T08:44:06;3.80;99.90
26081;DHT22;13991;51.174;4.438;2023-03-01T08:46:35;4.00;99.90
26081;DHT22;13991;51.174;4.438;2023-03-01T08:49:14;4.00;99.90
26081;DHT22;13991;51.174;4.438;2023-03-01T08:51:41;4.10;99.90
26081;DHT22;13991;51.174;4.438;2023-03-01T08:54:11;4.20;99.90
26081;DHT22;13991;51.174;4.438;2023-03-01T08:56:37;4.40;99.90
26081;DHT22;13991;51.174;4.438;2023-03-01T08:59:02;4.40;99.90
26081;DHT22;13991;51.174;4.438;2023-03-01T09:01:29;4.50;99.90
26081;DHT22;13991;51.174;4.438;2023-03-01T09:03:54;4.50;99.90
26081;DHT22;13991;51.174;4.438;2023-03-01T09:06:20;4.50;99.90
26081;DHT22;13991;51.174;4.438;2023-03-01T09:08:48;4.50;99.90
26081;DHT22;13991;51.174;4.438;2023-03-01T09:11:17;4.60;99.90
26081;DHT22;13991;51.174;4.438;2023-03-01T09:13:44;4.70;99.90
26081;DHT22;13991;51.174;4.438;2023-03-01T09:16:11;4.80;99.90
26081;DHT22;13991;51.174;4.438;2023-03-01T09:18:37;4.90;99.90
26081;DHT22;13991;51.174;4.438;2023-03-01T09:21:05;5.00;99.90
26081;DHT22;13991;51.174;4.438;2023-03-01T09:23:35;5.10;99.90
26081;DHT22;13991;51.174;4.438;2023-03-01T09:26:02;5.10;99.90
26081;DHT22;13991;51.174;4.438;2023-03-01T09:28:28;5.10;99.90
26081;DHT22;13991;51.174;4.438;2023-03-01T09:30:58;5.20;99.90
26081;DHT22;13991;51.174;4.438;2023-03-01T09:33:24;5.30;99.90
26081;DHT22;13991;51.174;4.438;2023-03-01T09:35:59;5.40;99.90
26081;DHT22;13991;51.174;4.438;2023-03-01T09:38:26;5.40;99.90
26081;DHT22;13991;51.174;4.438;2023-03-01T09:40:52;5.50;99.90
26081;DHT22;13991;51.174;4.438;2023-03-01T09:45:59;5.70;99.90
26081;DHT22;13991;51.174;4.438;2023-03-01T09:48:33;5.70;99.90
26081;DHT22;13991;51.174;4.438;2023-03-01T09:51:04;5.80;99.90
26081;DHT22;13991;51.174;4.438;2023-03-01T09:53:33;5.90;99.90
26081;DHT22;13991;51.174;4.438;2023-03-01T09:56:13;5.80;99.90
26081;DHT22;13991;51.174;4.438;2023-03-01T10:01:41;5.70;99.90
26081;DHT22;13991;51.174;4.438;2023-03-01T10:07:05;5.90;99.90
26081;DHT22;13991;51.174;4.438;2023-03-01T10:09:34;6.00;99.90
26081;DHT22;13991;51.174;4.438;2023-03-01T10:12:02;6.10;99.90
26081;DHT22;13991;51.174;4.438;2023-03-01T10:14:36;6.20;99.90
26081;DHT22;13991;51.174;4.438;2023-03-01T10:19:39;6.30;99.90
26081;DHT22;13991;51.174;4.438;2023-03-01T10:22:17;6.30;99.90
26081;DHT22;13991;51.174;4.438;2023-03-01T10:24:46;6.40;99.90
26081;DHT22;13991;51.174;4.438;2023-03-01T10:27:26;6.40;99.90
26081;DHT22;13991;51.174;4.438;2023-03-01T10:32:29;6.60;99.90
26081;DHT22;13991;51.174;4.438;2023-03-01T10:34:54;6.60;99.60
26081;DHT22;13991;51.174;4.438;2023-03-01T10:37:21;6.70;99.50
26081;DHT22;13991;51.174;4.438;2023-03-01T10:42:48;6.70;99.40
26081;DHT22;13991;51.174;4.438;2023-03-01T10:45:30;6.70;98.80
26081;DHT22;13991;51.174;4.438;2023-03-01T10:48:20;7.00;99.00
26081;DHT22;13991;51.174;4.438;2023-03-01T10:50:51;7.20;98.70
26081;DHT22;13991;51.174;4.438;2023-03-01T10:53:35;7.40;97.90
26081;DHT22;13991;51.174;4.438;2023-03-01T10:56:10;7.50;97.10
26081;DHT22;13991;51.174;4.438;2023-03-01T10:58:40;7.50;96.50
26081;DHT22;13991;51.174;4.438;2023-03-01T11:01:34;7.50;96.60
26081;DHT22;13991;51.174;4.438;2023-03-01T11:06:29;7.70;96.20
26081;DHT22;13991;51.174;4.438;2023-03-01T11:08:54;7.80;96.10
26081;DHT22;13991;51.174;4.438;2023-03-01T11:14:06;7.80;95.00
26081;DHT22;13991;51.174;4.438;2023-03-01T11:16:35;7.80;94.90
26081;DHT22;13991;51.174;4.438;2023-03-01T11:19:16;7.90;95.30
26081;DHT22;13991;51.174;4.438;2023-03-01T11:24:13;8.00;94.80
26081;DHT22;13991;51.174;4.438;2023-03-01T11:26:43;8.10;94.60
26081;DHT22;13991;51.174;4.438;2023-03-01T11:29:26;8.10;93.90
26081;DHT22;13991;51.174;4.438;2023-03-01T11:31:56;8.10;93.50
26081;DHT22;13991;51.174;4.438;2023-03-01T11:37:28;8.20;94.00
26081;DHT22;13991;51.174;4.438;2023-03-01T11:40:05;8.30;94.00
26081;DHT22;13991;51.174;4.438;2023-03-01T11:42:50;8.50;93.40
26081;DHT22;13991;51.174;4.438;2023-03-01T11:45:17;8.60;92.80
26081;DHT22;13991;51.174;4.438;2023-03-01T11:50:26;8.80;91.80
26081;DHT22;13991;51.174;4.438;2023-03-01T11:52:59;8.60;91.80
26081;DHT22;13991;51.174;4.438;2023-03-01T11:58:27;8.30;92.00
26081;DHT22;13991;51.174;4.438;2023-03-01T12:01:16;8.30;92.70
26081;DHT22;13991;51.174;4.438;2023-03-01T12:06:38;8.50;91.80
26081;DHT22;13991;51.174;4.438;2023-03-01T12:09:24;8.70;91.10
26081;DHT22;13991;51.174;4.438;2023-03-01T12:17:35;9.00;91.00
26081;DHT22;13991;51.174;4.438;2023-03-01T12:25:38;9.20;89.60
26081;DHT22;13991;51.174;4.438;2023-03-01T12:31:16;9.30;87.60
26081;DHT22;13991;51.174;4.438;2023-03-01T12:33:57;9.40;87.90
26081;DHT22;13991;51.174;4.438;2023-03-01T12:50:40;9.40;87.30
26081;DHT22;13991;51.174;4.438;2023-03-01T12:53:34;9.50;87.00
26081;DHT22;13991;51.174;4.438;2023-03-01T12:56:08;9.50;85.80
26081;DHT22;13991;51.174;4.438;2023-03-01T13:06:29;9.40;85.30
26081;DHT22;13991;51.174;4.438;2023-03-01T13:11:55;9.30;84.20
26081;DHT22;13991;51.174;4.438;2023-03-01T13:16:49;9.20;84.80
26081;DHT22;13991;51.174;4.438;2023-03-01T13:19:20;9.20;85.00
26081;DHT22;13991;51.174;4.438;2023-03-01T13:21:48;9.30;84.60
26081;DHT22;13991;51.174;4.438;2023-03-01T13:29:49;9.60;82.80
26081;DHT22;13991;51.174;4.438;2023-03-01T13:32:34;9.70;81.40
26081;DHT22;13991;51.174;4.438;2023-03-01T13:37:52;9.60;82.30
26081;DHT22;13991;51.174;4.438;2023-03-01T13:42:51;9.70;83.60
26081;DHT22;13991;51.174;4.438;2023-03-01T13:45:39;9.90;83.80
26081;DHT22;13991;51.174;4.438;2023-03-01T13:48:27;10.10;82.40
26081;DHT22;13991;51.174;4.438;2023-03-01T13:51:02;10.00;82.90
26081;DHT22;13991;51.174;4.438;2023-03-01T13:53:31;10.10;80.60
26081;DHT22;13991;51.174;4.438;2023-03-01T13:56:03;10.00;80.70
26081;DHT22;13991;51.174;4.438;2023-03-01T13:58:33;10.00;80.80
26081;DHT22;13991;51.174;4.438;2023-03-01T14:01:24;9.90;80.50
26081;DHT22;13991;51.174;4.438;2023-03-01T14:03:50;9.90;80.60
26081;DHT22;13991;51.174;4.438;2023-03-01T14:06:21;9.90;80.50
26081;DHT22;13991;51.174;4.438;2023-03-01T14:08:50;9.90;80.30
26081;DHT22;13991;51.174;4.438;2023-03-01T14:12:02;9.90;80.30
26081;DHT22;13991;51.174;4.438;2023-03-01T14:14:45;9.80;79.90
26081;DHT22;13991;51.174;4.438;2023-03-01T14:19:40;9.50;81.20
26081;DHT22;13991;51.174;4.438;2023-03-01T14:22:22;9.70;80.70
26081;DHT22;13991;51.174;4.438;2023-03-01T14:24:50;9.90;80.20
26081;DHT22;13991;51.174;4.438;2023-03-01T14:27:17;9.70;81.20
26081;DHT22;13991;51.174;4.438;2023-03-01T14:29:44;9.60;81.70
26081;DHT22;13991;51.174;4.438;2023-03-01T14:32:22;9.60;81.50
26081;DHT22;13991;51.174;4.438;2023-03-01T14:34:50;9.60;80.60
26081;DHT22;13991;51.174;4.438;2023-03-01T14:39:48;9.50;81.70
26081;DHT22;13991;51.174;4.438;2023-03-01T14:42:15;9.60;81.40
26081;DHT22;13991;51.174;4.438;2023-03-01T14:44:43;9.60;80.80
26081;DHT22;13991;51.174;4.438;2023-03-01T14:47:14;9.70;80.90
26081;DHT22;13991;51.174;4.438;2023-03-01T14:49:41;9.70;79.60
26081;DHT22;13991;51.174;4.438;2023-03-01T14:52:22;9.60;79.40
26081;DHT22;13991;51.174;4.438;2023-03-01T14:54:53;9.50;80.90
26081;DHT22;13991;51.174;4.438;2023-03-01T14:57:22;9.40;81.80
26081;DHT22;13991;51.174;4.438;2023-03-01T14:59:50;9.50;80.70
26081;DHT22;13991;51.174;4.438;2023-03-01T15:02:21;9.60;80.50
26081;DHT22;13991;51.174;4.438;2023-03-01T15:04:49;9.60;80.80
26081;DHT22;13991;51.174;4.438;2023-03-01T15:07:17;9.50;80.60
26081;DHT22;13991;51.174;4.438;2023-03-01T15:09:43;9.40;82.00
26081;DHT22;13991;51.174;4.438;2023-03-01T15:14:55;9.40;82.50
26081;DHT22;13991;51.174;4.438;2023-03-01T15:17:31;9.40;83.10
26081;DHT22;13991;51.174;4.438;2023-03-01T15:19:58;9.50;82.70
26081;DHT22;13991;51.174;4.438;2023-03-01T15:22:25;9.60;82.90
26081;DHT22;13991;51.174;4.438;2023-03-01T15:24:52;9.60;82.80
26081;DHT22;13991;51.174;4.438;2023-03-01T15:27:23;9.70;82.30
26081;DHT22;13991;51.174;4.438;2023-03-01T15:29:58;9.60;82.00
26081;DHT22;13991;51.174;4.438;2023-03-01T15:32:33;9.40;82.50
26081;DHT22;13991;51.174;4.438;2023-03-01T15:35:00;9.20;83.80
26081;DHT22;13991;51.174;4.438;2023-03-01T15:37:45;9.30;82.60
26081;DHT22;13991;51.174;4.438;2023-03-01T15:40:32;9.20;83.40
26081;DHT22;13991;51.174;4.438;2023-03-01T15:43:04;9.10;83.90
26081;DHT22;13991;51.174;4.438;2023-03-01T15:45:31;9.00;84.30
26081;DHT22;13991;51.174;4.438;2023-03-01T15:48:19;9.00;85.00
26081;DHT22;13991;51.174;4.438;2023-03-01T15:50:54;9.00;84.80
26081;DHT22;13991;51.174;4.438;2023-03-01T15:53:20;9.00;85.20
26081;DHT22;13991;51.174;4.438;2023-03-01T15:55:46;9.10;84.20
26081;DHT22;13991;51.174;4.438;2023-03-01T15:58:18;9.20;84.40
26081;DHT22;13991;51.174;4.438;2023-03-01T16:00:45;9.20;84.00
26081;DHT22;13991;51.174;4.438;2023-03-01T16:03:14;9.10;83.80
26081;DHT22;13991;51.174;4.438;2023-03-01T16:05:48;8.90;84.40
26081;DHT22;13991;51.174;4.438;2023-03-01T16:08:15;8.90;84.10
26081;DHT22;13991;51.174;4.438;2023-03-01T16:10:42;8.80;84.70
26081;DHT22;13991;51.174;4.438;2023-03-01T16:13:11;8.70;85.00
26081;DHT22;13991;51.174;4.438;2023-03-01T16:15:37;8.50;85.80
26081;DHT22;13991;51.174;4.438;2023-03-01T16:18:05;8.50;85.70
26081;DHT22;13991;51.174;4.438;2023-03-01T16:20:32;8.50;85.70
26081;DHT22;13991;51.174;4.438;2023-03-01T16:23:04;8.40;86.00
26081;DHT22;13991;51.174;4.438;2023-03-01T16:25:30;8.20;86.30
26081;DHT22;13991;51.174;4.438;2023-03-01T16:27:57;8.20;86.70
26081;DHT22;13991;51.174;4.438;2023-03-01T16:30:25;8.30;86.50
26081;DHT22;13991;51.174;4.438;2023-03-01T16:32:51;8.30;86.70
26081;DHT22;13991;51.174;4.438;2023-03-01T16:35:19;8.30;86.60
26081;DHT22;13991;51.174;4.438;2023-03-01T16:37:46;8.40;86.70
26081;DHT22;13991;51.174;4.438;2023-03-01T16:40:19;8.20;86.80
26081;DHT22;13991;51.174;4.438;2023-03-01T16:42:47;8.10;86.80
26081;DHT22;13991;51.174;4.438;2023-03-01T16:45:13;7.90;86.80
26081;DHT22;13991;51.174;4.438;2023-03-01T16:47:38;8.10;87.10
26081;DHT22;13991;51.174;4.438;2023-03-01T16:50:04;8.00;87.40
26081;DHT22;13991;51.174;4.438;2023-03-01T16:52:30;8.00;87.40
26081;DHT22;13991;51.174;4.438;2023-03-01T16:54:56;8.00;87.90
26081;DHT22;13991;51.174;4.438;2023-03-01T16:57:22;7.90;88.10
26081;DHT22;13991;51.174;4.438;2023-03-01T16:59:47;7.90;88.50
26081;DHT22;13991;51.174;4.438;2023-03-01T17:02:16;7.90;88.70
26081;DHT22;13991;51.174;4.438;2023-03-01T17:04:50;7.90;89.10
26081;DHT22;13991;51.174;4.438;2023-03-01T17:07:16;7.80;89.30
26081;DHT22;13991;51.174;4.438;2023-03-01T17:09:42;7.80;89.60
26081;DHT22;13991;51.174;4.438;2023-03-01T17:12:07;7.90;89.70
26081;DHT22;13991;51.174;4.438;2023-03-01T17:14:34;7.90;89.70
26081;DHT22;13991;51.174;4.438;2023-03-01T17:16:59;7.90;90.00
26081;DHT22;13991;51.174;4.438;2023-03-01T17:19:27;7.80;90.10
26081;DHT22;13991;51.174;4.438;2023-03-01T17:21:54;7.70;90.20
26081;DHT22;13991;51.174;4.438;2023-03-01T17:24:19;7.70;90.40
26081;DHT22;13991;51.174;4.438;2023-03-01T17:26:45;7.60;90.60
26081;DHT22;13991;51.174;4.438;2023-03-01T17:29:11;7.60;90.70
26081;DHT22;13991;51.174;4.438;2023-03-01T17:31:38;7.60;90.90
26081;DHT22;13991;51.174;4.438;2023-03-01T17:34:04;7.50;91.00
26081;DHT22;13991;51.174;4.438;2023-03-01T17:36:29;7.70;91.20
26081;DHT22;13991;51.174;4.438;2023-03-01T17:38:55;7.50;91.40
26081;DHT22;13991;51.174;4.438;2023-03-01T17:41:21;7.40;91.60
26081;DHT22;13991;51.174;4.438;2023-03-01T17:43:48;7.40;91.80
26081;DHT22;13991;51.174;4.438;2023-03-01T17:46:14;7.30;92.20
26081;DHT22;13991;51.174;4.438;2023-03-01T17:48:40;7.30;92.30
26081;DHT22;13991;51.174;4.438;2023-03-01T17:51:07;7.30;92.60
26081;DHT22;13991;51.174;4.438;2023-03-01T17:53:34;7.30;92.70